sensor_id;sensor_type;location;lat;lon;timestamp;pressure;altitude;pressure_sealevel;temperature;humidity
35878;BME280;21982;49.804;24.072;2023-02-03T00:01:10;97164.34;;;2.08;78.92
35878;BME280;21982;49.804;24.072;2023-02-03T00:03:35;97048.38;;;1.62;79.02
35878;BME280;21982;49.804;24.072;2023-02-03T00:06:02;97139.97;;;2.17;79.10
35878;BME280;21982;49.804;24.072;2023-02-03T00:08:29;96917.72;;;0.88;78.39
35878;BME280;21982;49.804;24.072;2023-02-03T00:10:55;97139.28;;;2.15;78.88
35878;BME280;21982;49.804;24.072;2023-02-03T00:13:21;96856.53;;;0.15;78.83
35878;BME280;21982;49.804;24.072;2023-02-03T00:15:46;97144.22;;;2.18;78.49
35878;BME280;21982;49.804;24.072;2023-02-03T00:18:14;96902.38;;;0.65;78.48
35878;BME280;21982;49.804;24.072;2023-02-03T00:20:40;96607.88;;;-1.36;78.20
35878;BME280;21982;49.804;24.072;2023-02-03T00:23:08;97098.13;;;1.70;78.76
35878;BME280;21982;49.804;24.072;2023-02-03T00:25:34;96932.50;;;0.49;78.48
35878;BME280;21982;49.804;24.072;2023-02-03T00:28:00;97167.31;;;2.22;78.48
35878;BME280;21982;49.804;24.072;2023-02-03T00:30:26;97013.50;;;1.44;78.45
35878;BME280;21982;49.804;24.072;2023-02-03T00:32:52;97188.50;;;2.19;78.45
35878;BME280;21982;49.804;24.072;2023-02-03T00:35:17;97147.53;;;2.20;78.74
35878;BME280;21982;49.804;24.072;2023-02-03T00:37:43;96883.84;;;0.59;77.78
35878;BME280;21982;49.804;24.072;2023-02-03T00:40:09;97119.53;;;2.03;78.10
35878;BME280;21982;49.804;24.072;2023-02-03T00:42:34;97150.00;;;2.12;78.19
35878;BME280;21982;49.804;24.072;2023-02-03T00:45:00;97010.50;;;1.00;77.78
35878;BME280;21982;49.804;24.072;2023-02-03T00:47:26;97108.28;;;1.63;78.14
35878;BME280;21982;49.804;24.072;2023-02-03T00:49:51;97181.09;;;2.05;78.32
35878;BME280;21982;49.804;24.072;2023-02-03T00:52:16;96968.34;;;0.76;77.58
35878;BME280;21982;49.804;24.072;2023-02-03T00:54:42;97178.06;;;2.10;78.15
35878;BME280;21982;49.804;24.072;2023-02-03T00:57:07;97198.13;;;2.09;78.02
35878;BME280;21982;49.804;24.072;2023-02-03T00:59:33;96835.41;;;-0.02;77.55
35878;BME280;21982;49.804;24.072;2023-02-03T01:01:58;97190.28;;;2.09;78.17
35878;BME280;21982;49.804;24.072;2023-02-03T01:04:24;96880.31;;;0.00;77.96
35878;BME280;21982;49.804;24.072;2023-02-03T01:06:50;97153.59;;;1.91;78.08
35878;BME280;21982;49.804;24.072;2023-02-03T01:09:15;97164.59;;;1.95;77.81
35878;BME280;21982;49.804;24.072;2023-02-03T01:11:41;97192.06;;;2.09;77.56
35878;BME280;21982;49.804;24.072;2023-02-03T01:14:06;96972.72;;;0.65;77.67
35878;BME280;21982;49.804;24.072;2023-02-03T01:16:32;97194.84;;;2.07;78.09
35878;BME280;21982;49.804;24.072;2023-02-03T01:19:00;97089.03;;;1.45;77.64
35878;BME280;21982;49.804;24.072;2023-02-03T01:21:26;97187.66;;;2.09;78.04
35878;BME280;21982;49.804;24.072;2023-02-03T01:23:52;97136.00;;;1.74;77.04
35878;BME280;21982;49.804;24.072;2023-02-03T01:26:21;97197.47;;;2.07;77.34
35878;BME280;21982;49.804;24.072;2023-02-03T01:28:54;97195.00;;;2.06;77.75
35878;BME280;21982;49.804;24.072;2023-02-03T01:31:23;96886.25;;;0.12;77.66
35878;BME280;21982;49.804;24.072;2023-02-03T01:33:51;96913.97;;;0.42;77.28
35878;BME280;21982;49.804;24.072;2023-02-03T01:36:18;97141.38;;;1.82;77.64
35878;BME280;21982;49.804;24.072;2023-02-03T01:38:45;97084.63;;;1.46;77.88
35878;BME280;21982;49.804;24.072;2023-02-03T01:41:16;96970.13;;;0.75;77.49
35878;BME280;21982;49.804;24.072;2023-02-03T01:43:45;97049.47;;;1.21;77.30
35878;BME280;21982;49.804;24.072;2023-02-03T01:48:53;97156.06;;;1.83;76.94
35878;BME280;21982;49.804;24.072;2023-02-03T01:51:20;97095.06;;;1.46;77.37
35878;BME280;21982;49.804;24.072;2023-02-03T01:53:47;97094.81;;;1.49;77.47
35878;BME280;21982;49.804;24.072;2023-02-03T01:56:14;97005.25;;;0.90;77.41
35878;BME280;21982;49.804;24.072;2023-02-03T01:58:41;97101.50;;;1.42;77.26
35878;BME280;21982;49.804;24.072;2023-02-03T02:01:07;97213.66;;;2.11;77.47
35878;BME280;21982;49.804;24.072;2023-02-03T02:03:45;97165.13;;;1.79;76.82
35878;BME280;21982;49.804;24.072;2023-02-03T02:06:12;97106.75;;;1.32;77.50
35878;BME280;21982;49.804;24.072;2023-02-03T02:08:39;97052.44;;;0.87;77.14
35878;BME280;21982;49.804;24.072;2023-02-03T02:11:05;97214.88;;;1.78;77.27
35878;BME280;21982;49.804;24.072;2023-02-03T02:13:33;97211.31;;;1.69;76.61
35878;BME280;21982;49.804;24.072;2023-02-03T02:22:30;97147.28;;;1.06;76.88
35878;BME280;21982;49.804;24.072;2023-02-03T02:31:03;97227.69;;;1.41;76.46
35878;BME280;21982;49.804;24.072;2023-02-03T02:33:43;97217.78;;;1.25;77.05
35878;BME280;21982;49.804;24.072;2023-02-03T02:39:03;97235.28;;;1.44;76.86
35878;BME280;21982;49.804;24.072;2023-02-03T02:41:45;97236.41;;;1.51;76.45
35878;BME280;21982;49.804;24.072;2023-02-03T02:44:15;97243.97;;;1.54;76.72
35878;BME280;21982;49.804;24.072;2023-02-03T02:46:45;97211.22;;;1.30;75.93
35878;BME280;21982;49.804;24.072;2023-02-03T02:49:16;97247.00;;;1.59;76.05
35878;BME280;21982;49.804;24.072;2023-02-03T02:51:45;97230.91;;;1.54;76.27
35878;BME280;21982;49.804;24.072;2023-02-03T02:54:16;97271.97;;;1.52;75.78
35878;BME280;21982;49.804;24.072;2023-02-03T02:56:44;97255.47;;;1.51;75.79
35878;BME280;21982;49.804;24.072;2023-02-03T02:59:13;97146.41;;;0.86;75.59
35878;BME280;21982;49.804;24.072;2023-02-03T03:01:38;97254.91;;;1.48;75.15
35878;BME280;21982;49.804;24.072;2023-02-03T03:04:06;96804.03;;;-1.31;74.89
35878;BME280;21982;49.804;24.072;2023-02-03T03:06:38;97268.94;;;1.47;74.53
35878;BME280;21982;49.804;24.072;2023-02-03T03:09:11;97267.53;;;1.43;73.73
35878;BME280;21982;49.804;24.072;2023-02-03T03:11:44;97275.38;;;1.43;73.62
35878;BME280;21982;49.804;24.072;2023-02-03T03:14:12;97304.31;;;1.40;73.84
35878;BME280;21982;49.804;24.072;2023-02-03T03:16:43;97109.81;;;0.26;73.36
35878;BME280;21982;49.804;24.072;2023-02-03T03:19:18;97028.59;;;-0.40;73.13
35878;BME280;21982;49.804;24.072;2023-02-03T03:21:51;97285.34;;;1.28;73.64
35878;BME280;21982;49.804;24.072;2023-02-03T03:24:24;97013.25;;;-0.43;73.18
35878;BME280;21982;49.804;24.072;2023-02-03T03:26:58;97266.97;;;0.99;72.59
35878;BME280;21982;49.804;24.072;2023-02-03T03:29:29;97287.69;;;1.00;72.18
35878;BME280;21982;49.804;24.072;2023-02-03T03:32:00;97193.25;;;0.46;72.60
35878;BME280;21982;49.804;24.072;2023-02-03T03:34:27;97309.03;;;1.15;72.51
35878;BME280;21982;49.804;24.072;2023-02-03T03:37:15;97202.91;;;0.55;71.63
35878;BME280;21982;49.804;24.072;2023-02-03T03:39:58;97298.59;;;1.15;71.82
35878;BME280;21982;49.804;24.072;2023-02-03T03:42:44;97305.84;;;1.12;72.10
35878;BME280;21982;49.804;24.072;2023-02-03T03:45:21;97302.16;;;1.14;71.93
35878;BME280;21982;49.804;24.072;2023-02-03T03:47:53;97308.91;;;1.17;71.80
35878;BME280;21982;49.804;24.072;2023-02-03T03:50:25;97268.94;;;0.86;71.49
35878;BME280;21982;49.804;24.072;2023-02-03T03:52:53;97311.19;;;1.10;71.54
35878;BME280;21982;49.804;24.072;2023-02-03T03:55:20;97323.41;;;1.10;71.48
35878;BME280;21982;49.804;24.072;2023-02-03T03:58:04;97338.91;;;1.11;70.95
35878;BME280;21982;49.804;24.072;2023-02-03T04:00:34;97337.53;;;1.07;71.33
35878;BME280;21982;49.804;24.072;2023-02-03T04:03:12;97118.84;;;-0.19;71.07
35878;BME280;21982;49.804;24.072;2023-02-03T04:05:39;97328.03;;;1.06;71.31
35878;BME280;21982;49.804;24.072;2023-02-03T04:08:05;97328.31;;;1.03;70.72
35878;BME280;21982;49.804;24.072;2023-02-03T04:10:36;97328.31;;;1.03;70.23
35878;BME280;21982;49.804;24.072;2023-02-03T04:13:02;97331.38;;;0.87;70.92
35878;BME280;21982;49.804;24.072;2023-02-03T04:15:29;97330.97;;;0.71;70.50
35878;BME280;21982;49.804;24.072;2023-02-03T04:17:54;97079.53;;;-1.01;70.42
35878;BME280;21982;49.804;24.072;2023-02-03T04:20:21;97355.13;;;0.41;70.57
35878;BME280;21982;49.804;24.072;2023-02-03T04:22:47;97282.53;;;-0.16;nan
35878;BME280;21982;49.804;24.072;2023-02-03T04:25:13;97207.78;;;-0.57;70.58
35878;BME280;21982;49.804;24.072;2023-02-03T04:27:38;97120.78;;;-1.19;70.25
35878;BME280;21982;49.804;24.072;2023-02-03T04:30:05;97182.09;;;-1.05;70.45
35878;BME280;21982;49.804;24.072;2023-02-03T04:32:30;97064.28;;;-1.71;70.46
35878;BME280;21982;49.804;24.072;2023-02-03T04:34:56;97342.75;;;-0.10;70.54
35878;BME280;21982;49.804;24.072;2023-02-03T04:37:23;96954.00;;;-2.55;70.36
35878;BME280;21982;49.804;24.072;2023-02-03T04:39:51;97124.94;;;-1.50;70.05
35878;BME280;21982;49.804;24.072;2023-02-03T04:42:17;97189.75;;;-1.26;70.23
35878;BME280;21982;49.804;24.072;2023-02-03T04:44:42;97201.94;;;-1.15;70.07
35878;BME280;21982;49.804;24.072;2023-02-03T04:47:08;97343.47;;;-0.30;70.14
35878;BME280;21982;49.804;24.072;2023-02-03T04:49:33;97345.63;;;-0.35;70.26
35878;BME280;21982;49.804;24.072;2023-02-03T04:51:59;97321.97;;;-0.54;70.38
35878;BME280;21982;49.804;24.072;2023-02-03T04:54:24;96981.84;;;-2.81;70.27
35878;BME280;21982;49.804;24.072;2023-02-03T04:56:50;97353.41;;;-0.46;70.30
35878;BME280;21982;49.804;24.072;2023-02-03T04:59:15;97355.31;;;-0.48;70.43
35878;BME280;21982;49.804;24.072;2023-02-03T05:01:41;97354.72;;;-0.52;70.33
35878;BME280;21982;49.804;24.072;2023-02-03T05:04:06;97203.81;;;-1.40;70.51
35878;BME280;21982;49.804;24.072;2023-02-03T05:06:33;97211.84;;;-1.43;70.73
35878;BME280;21982;49.804;24.072;2023-02-03T05:08:58;97356.00;;;-0.57;70.54
35878;BME280;21982;49.804;24.072;2023-02-03T05:11:24;97154.88;;;-1.90;70.56
35878;BME280;21982;49.804;24.072;2023-02-03T05:13:49;97246.31;;;-1.41;70.95
35878;BME280;21982;49.804;24.072;2023-02-03T05:16:15;97314.63;;;-0.94;70.97
35878;BME280;21982;49.804;24.072;2023-02-03T05:18:40;97392.16;;;-0.65;71.02
35878;BME280;21982;49.804;24.072;2023-02-03T05:21:06;97367.94;;;-0.66;70.91
35878;BME280;21982;49.804;24.072;2023-02-03T05:23:31;97384.47;;;-0.67;70.83
35878;BME280;21982;49.804;24.072;2023-02-03T05:25:57;97168.28;;;-1.96;70.97
35878;BME280;21982;49.804;24.072;2023-02-03T05:28:22;97379.78;;;-0.73;71.16
35878;BME280;21982;49.804;24.072;2023-02-03T05:30:48;97149.59;;;-2.24;71.11
35878;BME280;21982;49.804;24.072;2023-02-03T05:33:13;97278.66;;;-1.45;71.12
35878;BME280;21982;49.804;24.072;2023-02-03T05:35:38;97358.31;;;-1.10;71.35
35878;BME280;21982;49.804;24.072;2023-02-03T05:38:04;97268.66;;;-1.62;71.89
35878;BME280;21982;49.804;24.072;2023-02-03T05:40:29;97319.25;;;-1.32;71.49
35878;BME280;21982;49.804;24.072;2023-02-03T05:43:13;97415.31;;;-0.85;71.74
35878;BME280;21982;49.804;24.072;2023-02-03T05:45:38;97369.16;;;-1.16;71.67
35878;BME280;21982;49.804;24.072;2023-02-03T05:48:05;97188.25;;;-2.21;72.05
35878;BME280;21982;49.804;24.072;2023-02-03T05:50:32;97332.59;;;-1.37;72.01
35878;BME280;21982;49.804;24.072;2023-02-03T05:53:01;97357.66;;;-1.25;72.18
35878;BME280;21982;49.804;24.072;2023-02-03T05:55:28;97419.56;;;-0.84;72.26
35878;BME280;21982;49.804;24.072;2023-02-03T05:57:53;97310.47;;;-1.54;72.12
35878;BME280;21982;49.804;24.072;2023-02-03T06:00:20;97319.44;;;-1.58;72.62
35878;BME280;21982;49.804;24.072;2023-02-03T06:02:53;97380.97;;;-1.12;72.59
35878;BME280;21982;49.804;24.072;2023-02-03T06:05:20;97331.31;;;-1.43;72.49
35878;BME280;21982;49.804;24.072;2023-02-03T06:07:45;97264.34;;;-1.85;72.72
35878;BME280;21982;49.804;24.072;2023-02-03T06:10:11;97340.25;;;-1.36;72.73
35878;BME280;21982;49.804;24.072;2023-02-03T06:12:37;97140.63;;;-2.55;72.74
35878;BME280;21982;49.804;24.072;2023-02-03T06:15:03;97311.91;;;-1.50;72.91
35878;BME280;21982;49.804;24.072;2023-02-03T06:17:29;97440.97;;;-0.69;72.87
35878;BME280;21982;49.804;24.072;2023-02-03T06:19:54;97392.44;;;-1.04;73.26
35878;BME280;21982;49.804;24.072;2023-02-03T06:22:20;97237.19;;;-1.92;73.42
35878;BME280;21982;49.804;24.072;2023-02-03T06:24:45;97244.84;;;-1.91;73.40
35878;BME280;21982;49.804;24.072;2023-02-03T06:27:13;97446.44;;;-0.61;73.24
35878;BME280;21982;49.804;24.072;2023-02-03T06:29:39;97173.25;;;-2.28;73.47
35878;BME280;21982;49.804;24.072;2023-02-03T06:32:04;97242.66;;;-1.73;73.30
35878;BME280;21982;49.804;24.072;2023-02-03T06:34:31;97449.69;;;-0.35;73.33
35878;BME280;21982;49.804;24.072;2023-02-03T06:36:57;97425.06;;;-0.42;73.47
35878;BME280;21982;49.804;24.072;2023-02-03T06:39:22;97391.50;;;-0.45;73.73
35878;BME280;21982;49.804;24.072;2023-02-03T06:41:48;97458.53;;;0.07;73.40
35878;BME280;21982;49.804;24.072;2023-02-03T06:44:15;97343.38;;;-0.51;73.66
35878;BME280;21982;49.804;24.072;2023-02-03T06:46:40;97269.72;;;-0.85;72.90
35878;BME280;21982;49.804;24.072;2023-02-03T06:49:06;97222.09;;;-0.96;73.19
35878;BME280;21982;49.804;24.072;2023-02-03T06:51:31;97337.53;;;-0.10;72.97
35878;BME280;21982;49.804;24.072;2023-02-03T06:53:56;97184.91;;;-0.97;72.64
35878;BME280;21982;49.804;24.072;2023-02-03T06:56:23;97384.63;;;0.42;72.67
35878;BME280;21982;49.804;24.072;2023-02-03T06:58:48;97431.53;;;0.74;73.04
35878;BME280;21982;49.804;24.072;2023-02-03T07:01:13;97356.50;;;0.56;72.60
35878;BME280;21982;49.804;24.072;2023-02-03T07:03:39;97366.19;;;0.65;71.98
35878;BME280;21982;49.804;24.072;2023-02-03T07:06:05;97243.97;;;-0.22;72.16
35878;BME280;21982;49.804;24.072;2023-02-03T07:08:30;97462.97;;;1.25;71.76
35878;BME280;21982;49.804;24.072;2023-02-03T07:10:56;97238.56;;;0.02;71.12
35878;BME280;21982;49.804;24.072;2023-02-03T07:13:21;97450.38;;;1.30;71.77
35878;BME280;21982;49.804;24.072;2023-02-03T07:15:47;97334.16;;;0.75;71.48
35878;BME280;21982;49.804;24.072;2023-02-03T07:18:12;97274.88;;;0.35;70.91
35878;BME280;21982;49.804;24.072;2023-02-03T07:20:37;97351.09;;;1.01;71.28
35878;BME280;21982;49.804;24.072;2023-02-03T07:23:05;97248.41;;;0.51;70.76
35878;BME280;21982;49.804;24.072;2023-02-03T07:25:30;97470.31;;;1.73;70.49
35878;BME280;21982;49.804;24.072;2023-02-03T07:27:56;97460.50;;;1.65;70.37
35878;BME280;21982;49.804;24.072;2023-02-03T07:30:22;96889.97;;;-1.98;70.11
35878;BME280;21982;49.804;24.072;2023-02-03T07:32:51;97450.25;;;1.73;70.49
35878;BME280;21982;49.804;24.072;2023-02-03T07:35:17;97447.91;;;1.80;70.13
35878;BME280;21982;49.804;24.072;2023-02-03T07:37:43;97445.63;;;1.86;70.07
35878;BME280;21982;49.804;24.072;2023-02-03T07:40:10;97439.63;;;1.95;70.32
35878;BME280;21982;49.804;24.072;2023-02-03T07:42:41;97274.22;;;0.95;69.69
35878;BME280;21982;49.804;24.072;2023-02-03T07:45:07;97393.91;;;1.71;70.32
35878;BME280;21982;49.804;24.072;2023-02-03T07:47:32;97235.09;;;0.65;69.88
35878;BME280;21982;49.804;24.072;2023-02-03T07:49:58;97437.06;;;2.05;70.13
35878;BME280;21982;49.804;24.072;2023-02-03T07:52:23;97273.97;;;1.08;69.70
35878;BME280;21982;49.804;24.072;2023-02-03T07:54:48;97437.06;;;2.15;69.48
35878;BME280;21982;49.804;24.072;2023-02-03T07:57:14;97377.22;;;1.92;69.60
35878;BME280;21982;49.804;24.072;2023-02-03T07:59:39;97429.44;;;2.32;69.74
35878;BME280;21982;49.804;24.072;2023-02-03T08:02:04;97437.41;;;2.31;70.04
35878;BME280;21982;49.804;24.072;2023-02-03T08:04:30;97421.75;;;2.41;70.00
35878;BME280;21982;49.804;24.072;2023-02-03T08:06:55;97299.09;;;1.70;69.15
35878;BME280;21982;49.804;24.072;2023-02-03T08:09:21;97423.97;;;2.55;69.60
35878;BME280;21982;49.804;24.072;2023-02-03T08:11:46;97395.56;;;2.21;69.36
35878;BME280;21982;49.804;24.072;2023-02-03T08:14:12;97428.09;;;2.57;69.23
35878;BME280;21982;49.804;24.072;2023-02-03T08:16:38;97326.38;;;1.96;69.14
35878;BME280;21982;49.804;24.072;2023-02-03T08:19:03;97412.97;;;2.51;69.14
35878;BME280;21982;49.804;24.072;2023-02-03T08:21:30;96989.75;;;-0.11;68.58
35878;BME280;21982;49.804;24.072;2023-02-03T08:23:56;97412.13;;;2.51;68.66
35878;BME280;21982;49.804;24.072;2023-02-03T08:26:21;97420.94;;;2.40;68.56
35878;BME280;21982;49.804;24.072;2023-02-03T08:28:48;97396.16;;;2.34;69.02
35878;BME280;21982;49.804;24.072;2023-02-03T08:31:14;97376.03;;;2.16;69.28
35878;BME280;21982;49.804;24.072;2023-02-03T08:33:39;97288.78;;;1.68;69.13
35878;BME280;21982;49.804;24.072;2023-02-03T08:36:05;97411.59;;;2.57;68.70
35878;BME280;21982;49.804;24.072;2023-02-03T08:38:31;97421.38;;;2.64;68.87
35878;BME280;21982;49.804;24.072;2023-02-03T08:40:56;97256.50;;;1.79;69.05
35878;BME280;21982;49.804;24.072;2023-02-03T08:43:22;97415.47;;;2.82;68.77
35878;BME280;21982;49.804;24.072;2023-02-03T08:45:47;97414.66;;;2.72;68.59
35878;BME280;21982;49.804;24.072;2023-02-03T08:48:13;97256.66;;;1.78;68.72
35878;BME280;21982;49.804;24.072;2023-02-03T08:50:41;97308.66;;;2.10;67.91
35878;BME280;21982;49.804;24.072;2023-02-03T08:53:07;97314.84;;;2.09;67.88
35878;BME280;21982;49.804;24.072;2023-02-03T08:55:33;97393.97;;;2.49;68.10
35878;BME280;21982;49.804;24.072;2023-02-03T08:57:58;97428.66;;;2.80;67.75
35878;BME280;21982;49.804;24.072;2023-02-03T09:00:27;97194.69;;;1.70;67.78
35878;BME280;21982;49.804;24.072;2023-02-03T09:02:52;97395.66;;;3.08;67.85
35878;BME280;21982;49.804;24.072;2023-02-03T09:05:18;97389.16;;;3.12;66.92
35878;BME280;21982;49.804;24.072;2023-02-03T09:07:43;97337.97;;;2.81;66.43
35878;BME280;21982;49.804;24.072;2023-02-03T09:10:09;97366.06;;;2.98;66.58
35878;BME280;21982;49.804;24.072;2023-02-03T09:12:35;97302.09;;;2.63;66.87
35878;BME280;21982;49.804;24.072;2023-02-03T09:15:00;97331.94;;;2.71;66.90
35878;BME280;21982;49.804;24.072;2023-02-03T09:17:25;97376.06;;;3.22;66.38
35878;BME280;21982;49.804;24.072;2023-02-03T09:19:52;97279.38;;;2.54;65.79
35878;BME280;21982;49.804;24.072;2023-02-03T09:22:17;97359.72;;;2.91;66.54
35878;BME280;21982;49.804;24.072;2023-02-03T09:24:43;97381.19;;;2.85;66.24
35878;BME280;21982;49.804;24.072;2023-02-03T09:27:08;97273.75;;;2.01;66.52
35878;BME280;21982;49.804;24.072;2023-02-03T09:29:33;97378.69;;;2.35;66.18
35878;BME280;21982;49.804;24.072;2023-02-03T09:31:59;97381.50;;;2.13;67.29
35878;BME280;21982;49.804;24.072;2023-02-03T09:34:25;97261.03;;;1.27;67.13
35878;BME280;21982;49.804;24.072;2023-02-03T09:36:50;97220.63;;;1.12;66.80
35878;BME280;21982;49.804;24.072;2023-02-03T09:39:16;97257.53;;;1.38;67.18
35878;BME280;21982;49.804;24.072;2023-02-03T09:41:50;97374.09;;;2.18;67.33
35878;BME280;21982;49.804;24.072;2023-02-03T09:47:17;97216.53;;;1.19;67.21
35878;BME280;21982;49.804;24.072;2023-02-03T09:49:49;97360.63;;;2.13;67.41
35878;BME280;21982;49.804;24.072;2023-02-03T09:52:44;96989.03;;;-0.13;66.86
35878;BME280;21982;49.804;24.072;2023-02-03T09:55:19;97356.22;;;2.04;67.58
35878;BME280;21982;49.804;24.072;2023-02-03T09:58:11;97268.66;;;1.50;66.95
35878;BME280;21982;49.804;24.072;2023-02-03T10:00:43;97100.38;;;0.35;67.47
35878;BME280;21982;49.804;24.072;2023-02-03T10:05:58;97302.53;;;1.71;67.15
35878;BME280;21982;49.804;24.072;2023-02-03T10:08:52;97263.81;;;1.85;67.42
35878;BME280;21982;49.804;24.072;2023-02-03T10:11:27;97353.69;;;2.61;66.86
35878;BME280;21982;49.804;24.072;2023-02-03T10:14:15;97341.44;;;2.72;67.33
35878;BME280;21982;49.804;24.072;2023-02-03T10:19:27;97262.75;;;2.36;66.86
35878;BME280;21982;49.804;24.072;2023-02-03T10:21:58;97340.59;;;3.00;66.70
35878;BME280;21982;49.804;24.072;2023-02-03T10:26:59;97332.34;;;2.85;66.31
35878;BME280;21982;49.804;24.072;2023-02-03T10:29:30;97319.94;;;2.78;66.75
35878;BME280;21982;49.804;24.072;2023-02-03T10:31:58;97260.41;;;2.14;66.36
35878;BME280;21982;49.804;24.072;2023-02-03T10:34:24;97310.06;;;2.52;66.25
35878;BME280;21982;49.804;24.072;2023-02-03T10:36:58;97040.94;;;1.09;66.05
35878;BME280;21982;49.804;24.072;2023-02-03T10:39:32;97303.44;;;2.87;65.62
35878;BME280;21982;49.804;24.072;2023-02-03T10:42:02;97142.34;;;2.00;65.85
35878;BME280;21982;49.804;24.072;2023-02-03T10:44:44;97221.47;;;2.59;64.56
35878;BME280;21982;49.804;24.072;2023-02-03T10:49:50;96994.84;;;1.00;64.72
35878;BME280;21982;49.804;24.072;2023-02-03T10:52:43;97221.19;;;2.52;64.88
35878;BME280;21982;49.804;24.072;2023-02-03T10:57:49;97294.06;;;2.94;64.32
35878;BME280;21982;49.804;24.072;2023-02-03T11:00:30;97056.34;;;1.51;64.24
35878;BME280;21982;49.804;24.072;2023-02-03T11:03:24;97284.84;;;2.99;64.22
35878;BME280;21982;49.804;24.072;2023-02-03T11:06:06;97132.69;;;2.20;64.11
35878;BME280;21982;49.804;24.072;2023-02-03T11:08:33;97285.56;;;3.29;63.64
35878;BME280;21982;49.804;24.072;2023-02-03T11:11:07;97273.44;;;3.65;62.96
35878;BME280;21982;49.804;24.072;2023-02-03T11:13:33;97252.81;;;3.80;62.76
35878;BME280;21982;49.804;24.072;2023-02-03T11:16:00;97269.31;;;4.08;61.93
35878;BME280;21982;49.804;24.072;2023-02-03T13:23:57;96970.69;;;4.16;53.61
35878;BME280;21982;49.804;24.072;2023-02-03T13:35:33;96911.19;;;3.05;56.36
35878;BME280;21982;49.804;24.072;2023-02-03T13:40:52;96923.94;;;2.90;57.94
35878;BME280;21982;49.804;24.072;2023-02-03T13:43:27;96798.91;;;1.96;57.29
35878;BME280;21982;49.804;24.072;2023-02-03T13:45:55;96904.44;;;2.66;57.86
35878;BME280;21982;49.804;24.072;2023-02-03T13:48:24;96900.94;;;2.58;57.18
35878;BME280;21982;49.804;24.072;2023-02-03T13:51:24;96895.75;;;2.48;57.90
35878;BME280;21982;49.804;24.072;2023-02-03T13:54:00;96739.28;;;1.47;57.31
35878;BME280;21982;49.804;24.072;2023-02-03T13:56:27;96884.56;;;2.38;58.00
35878;BME280;21982;49.804;24.072;2023-02-03T13:59:04;96775.16;;;1.72;57.73
35878;BME280;21982;49.804;24.072;2023-02-03T14:01:38;96784.25;;;1.86;57.46
35878;BME280;21982;49.804;24.072;2023-02-03T14:04:06;96879.63;;;2.35;57.26
35878;BME280;21982;49.804;24.072;2023-02-03T14:11:50;96847.19;;;2.10;57.60
35878;BME280;21982;49.804;24.072;2023-02-03T14:16:42;96834.66;;;2.14;58.26
35878;BME280;21982;49.804;24.072;2023-02-03T14:19:09;96840.56;;;2.16;58.20
35878;BME280;21982;49.804;24.072;2023-02-03T14:21:43;96835.88;;;2.19;57.28
35878;BME280;21982;49.804;24.072;2023-02-03T14:24:12;96637.34;;;0.85;57.58
35878;BME280;21982;49.804;24.072;2023-02-03T14:26:42;96419.22;;;-0.32;57.83
35878;BME280;21982;49.804;24.072;2023-02-03T14:29:22;96817.78;;;2.08;58.00
35878;BME280;21982;49.804;24.072;2023-02-03T14:34:32;96630.63;;;1.10;57.99
35878;BME280;21982;49.804;24.072;2023-02-03T14:37:31;96685.59;;;1.44;58.00
35878;BME280;21982;49.804;24.072;2023-02-03T14:45:06;96684.81;;;1.16;59.02
35878;BME280;21982;49.804;24.072;2023-02-03T14:59:41;96736.38;;;1.22;59.35
35878;BME280;21982;49.804;24.072;2023-02-03T15:04:39;96762.59;;;1.30;60.33
35878;BME280;21982;49.804;24.072;2023-02-03T15:07:05;96528.25;;;-0.39;60.08
35878;BME280;21982;49.804;24.072;2023-02-03T15:09:35;96662.75;;;0.74;59.82
35878;BME280;21982;49.804;24.072;2023-02-03T15:12:15;96416.41;;;-1.14;60.11
35878;BME280;21982;49.804;24.072;2023-02-03T15:14:41;96621.38;;;0.33;60.60
35878;BME280;21982;49.804;24.072;2023-02-03T15:17:12;96529.44;;;-0.33;60.56
35878;BME280;21982;49.804;24.072;2023-02-03T15:19:40;96745.06;;;1.13;60.71
35878;BME280;21982;49.804;24.072;2023-02-03T15:22:27;96728.13;;;0.99;61.02
35878;BME280;21982;49.804;24.072;2023-02-03T15:24:58;96686.25;;;0.64;60.53
35878;BME280;21982;49.804;24.072;2023-02-03T15:27:26;96646.28;;;0.36;61.04
35878;BME280;21982;49.804;24.072;2023-02-03T15:29:53;96669.97;;;0.43;61.16
35878;BME280;21982;49.804;24.072;2023-02-03T15:32:25;96582.00;;;-0.10;61.34
35878;BME280;21982;49.804;24.072;2023-02-03T15:37:48;96698.88;;;0.69;61.32
35878;BME280;21982;49.804;24.072;2023-02-03T15:43:07;96528.09;;;-0.47;61.55
35878;BME280;21982;49.804;24.072;2023-02-03T15:46:08;96323.19;;;-1.94;62.12
35878;BME280;21982;49.804;24.072;2023-02-03T15:48:48;96387.00;;;-1.34;62.35
35878;BME280;21982;49.804;24.072;2023-02-03T15:53:52;96675.59;;;0.48;63.01
35878;BME280;21982;49.804;24.072;2023-02-03T15:56:24;96589.41;;;-0.06;62.79
35878;BME280;21982;49.804;24.072;2023-02-03T15:58:55;96691.63;;;0.43;62.84
35878;BME280;21982;49.804;24.072;2023-02-03T16:01:23;96666.00;;;0.48;62.87
35878;BME280;21982;49.804;24.072;2023-02-03T16:03:53;96584.56;;;0.09;63.44
35878;BME280;21982;49.804;24.072;2023-02-03T16:06:29;96651.16;;;0.58;62.95
35878;BME280;21982;49.804;24.072;2023-02-03T16:09:00;96621.00;;;0.09;63.00
35878;BME280;21982;49.804;24.072;2023-02-03T16:14:05;96630.94;;;0.70;62.65
35878;BME280;21982;49.804;24.072;2023-02-03T16:16:35;96598.66;;;0.53;62.98
35878;BME280;21982;49.804;24.072;2023-02-03T16:19:14;96512.09;;;0.05;62.43
35878;BME280;21982;49.804;24.072;2023-02-03T16:24:36;96596.84;;;0.63;62.97
35878;BME280;21982;49.804;24.072;2023-02-03T16:29:51;96583.69;;;0.65;63.04
35878;BME280;21982;49.804;24.072;2023-02-03T16:32:35;96342.78;;;-0.86;62.72
35878;BME280;21982;49.804;24.072;2023-02-03T16:35:19;96575.47;;;0.60;62.79
35878;BME280;21982;49.804;24.072;2023-02-03T16:38:05;96463.28;;;-0.21;63.04
35878;BME280;21982;49.804;24.072;2023-02-03T16:40:50;96460.69;;;-0.21;62.77
35878;BME280;21982;49.804;24.072;2023-02-03T16:43:33;96279.44;;;-1.31;62.88
35878;BME280;21982;49.804;24.072;2023-02-03T16:46:18;96506.72;;;0.16;63.04